sensor_id;sensor_type;location;lat;lon;timestamp;pressure;altitude;pressure_sealevel;temperature;humidity
19208;BME280;9737;59.466;18.036;2022-12-07T00:01:26;92401.25;;;-8.32;85.52
19208;BME280;9737;59.466;18.036;2022-12-07T00:03:57;92406.81;;;-8.35;86.03
19208;BME280;9737;59.466;18.036;2022-12-07T00:06:30;92399.91;;;-8.34;85.82
19208;BME280;9737;59.466;18.036;2022-12-07T00:08:59;92400.47;;;-8.32;85.20
19208;BME280;9737;59.466;18.036;2022-12-07T00:11:27;92408.97;;;-8.32;85.33
19208;BME280;9737;59.466;18.036;2022-12-07T00:13:57;92413.13;;;-8.31;86.03
19208;BME280;9737;59.466;18.036;2022-12-07T00:16:28;92414.72;;;-8.30;86.03
19208;BME280;9737;59.466;18.036;2022-12-07T00:18:57;92412.94;;;-8.29;85.58
19208;BME280;9737;59.466;18.036;2022-12-07T00:21:31;92427.00;;;-8.25;85.85
19208;BME280;9737;59.466;18.036;2022-12-07T00:24:00;92438.69;;;-8.23;85.43
19208;BME280;9737;59.466;18.036;2022-12-07T00:26:30;92448.81;;;-8.21;86.13
19208;BME280;9737;59.466;18.036;2022-12-07T00:29:00;92453.97;;;-8.21;85.68
19208;BME280;9737;59.466;18.036;2022-12-07T00:31:34;92460.31;;;-8.17;85.88
19208;BME280;9737;59.466;18.036;2022-12-07T00:34:06;92464.47;;;-8.16;85.74
19208;BME280;9737;59.466;18.036;2022-12-07T00:36:34;92459.50;;;-8.18;85.70
19208;BME280;9737;59.466;18.036;2022-12-07T00:39:02;92453.56;;;-8.18;85.77
19208;BME280;9737;59.466;18.036;2022-12-07T00:41:30;92476.94;;;-8.13;85.83
19208;BME280;9737;59.466;18.036;2022-12-07T00:43:59;92499.00;;;-8.04;85.57
19208;BME280;9737;59.466;18.036;2022-12-07T00:46:30;92503.34;;;-8.04;85.61
19208;BME280;9737;59.466;18.036;2022-12-07T00:48:59;92506.13;;;-8.06;86.00
19208;BME280;9737;59.466;18.036;2022-12-07T00:51:27;92459.28;;;-8.29;85.99
19208;BME280;9737;59.466;18.036;2022-12-07T00:53:55;92465.44;;;-8.17;85.52
19208;BME280;9737;59.466;18.036;2022-12-07T00:56:25;92431.56;;;-8.27;85.42
19208;BME280;9737;59.466;18.036;2022-12-07T00:58:56;92418.09;;;-8.29;85.65
19208;BME280;9737;59.466;18.036;2022-12-07T01:01:26;92400.47;;;-8.32;85.99
19208;BME280;9737;59.466;18.036;2022-12-07T01:03:56;92387.41;;;-8.37;85.54
19208;BME280;9737;59.466;18.036;2022-12-07T01:06:25;92375.28;;;-8.44;85.66
19208;BME280;9737;59.466;18.036;2022-12-07T01:08:53;92360.25;;;-8.47;85.16
19208;BME280;9737;59.466;18.036;2022-12-07T01:11:24;92345.78;;;-8.48;85.95
19208;BME280;9737;59.466;18.036;2022-12-07T01:13:54;92330.34;;;-8.54;85.70
19208;BME280;9737;59.466;18.036;2022-12-07T01:16:24;92323.59;;;-8.55;86.04
19208;BME280;9737;59.466;18.036;2022-12-07T01:18:54;92299.25;;;-8.59;85.40
19208;BME280;9737;59.466;18.036;2022-12-07T01:21:26;92302.81;;;-8.60;86.31
19208;BME280;9737;59.466;18.036;2022-12-07T01:23:56;92287.56;;;-8.62;85.97
19208;BME280;9737;59.466;18.036;2022-12-07T01:26:25;92278.81;;;-8.67;85.40
19208;BME280;9737;59.466;18.036;2022-12-07T01:28:53;92274.28;;;-8.72;86.22
19208;BME280;9737;59.466;18.036;2022-12-07T01:31:23;92292.13;;;-8.64;85.41
19208;BME280;9737;59.466;18.036;2022-12-07T01:33:54;92288.75;;;-8.64;85.56
19208;BME280;9737;59.466;18.036;2022-12-07T01:36:27;92297.88;;;-8.62;85.67
19208;BME280;9737;59.466;18.036;2022-12-07T01:38:58;92282.38;;;-8.75;85.82
19208;BME280;9737;59.466;18.036;2022-12-07T01:41:28;92321.22;;;-8.57;85.47
19208;BME280;9737;59.466;18.036;2022-12-07T01:44:16;92315.28;;;-8.57;85.55
19208;BME280;9737;59.466;18.036;2022-12-07T01:46:46;92311.91;;;-8.58;85.78
19208;BME280;9737;59.466;18.036;2022-12-07T01:49:20;92294.88;;;-8.65;85.55
19208;BME280;9737;59.466;18.036;2022-12-07T01:51:53;92272.25;;;-8.90;85.35
19208;BME280;9737;59.466;18.036;2022-12-07T01:54:26;92323.41;;;-8.54;85.74
19208;BME280;9737;59.466;18.036;2022-12-07T01:56:56;92330.94;;;-8.52;85.58
19208;BME280;9737;59.466;18.036;2022-12-07T01:59:25;92337.47;;;-8.50;85.89
19208;BME280;9737;59.466;18.036;2022-12-07T02:01:55;92352.53;;;-8.47;85.46
19208;BME280;9737;59.466;18.036;2022-12-07T02:04:24;92335.47;;;-8.54;85.44
19208;BME280;9737;59.466;18.036;2022-12-07T02:06:54;92344.19;;;-8.49;85.44
19208;BME280;9737;59.466;18.036;2022-12-07T02:09:23;92321.63;;;-8.60;85.88
19208;BME280;9737;59.466;18.036;2022-12-07T02:11:51;92347.38;;;-8.47;85.69
19208;BME280;9737;59.466;18.036;2022-12-07T02:14:21;92355.69;;;-8.45;85.85
19208;BME280;9737;59.466;18.036;2022-12-07T02:16:58;92348.16;;;-8.46;85.96
19208;BME280;9737;59.466;18.036;2022-12-07T02:23:04;92367.97;;;-8.47;85.48
19208;BME280;9737;59.466;18.036;2022-12-07T02:25:52;92377.47;;;-8.40;85.89
19208;BME280;9737;59.466;18.036;2022-12-07T02:28:29;92371.94;;;-8.44;85.81
19208;BME280;9737;59.466;18.036;2022-12-07T02:31:04;92361.63;;;-8.44;85.57
19208;BME280;9737;59.466;18.036;2022-12-07T02:33:37;92374.91;;;-8.40;85.81
19208;BME280;9737;59.466;18.036;2022-12-07T02:36:12;92390.59;;;-8.35;85.50
19208;BME280;9737;59.466;18.036;2022-12-07T02:38:48;92397.88;;;-8.32;86.18
19208;BME280;9737;59.466;18.036;2022-12-07T02:41:22;92396.91;;;-8.31;86.04
19208;BME280;9737;59.466;18.036;2022-12-07T02:43:55;92402.84;;;-8.31;85.83
19208;BME280;9737;59.466;18.036;2022-12-07T02:46:27;92397.88;;;-8.32;85.67
19208;BME280;9737;59.466;18.036;2022-12-07T02:48:57;92395.72;;;-8.35;85.48
19208;BME280;9737;59.466;18.036;2022-12-07T02:51:29;92396.34;;;-8.33;85.28
19208;BME280;9737;59.466;18.036;2022-12-07T02:53:58;92384.84;;;-8.37;85.96
19208;BME280;9737;59.466;18.036;2022-12-07T02:56:32;92322.34;;;-8.72;85.67
19208;BME280;9737;59.466;18.036;2022-12-07T02:59:14;92387.22;;;-8.36;85.87
19208;BME280;9737;59.466;18.036;2022-12-07T03:01:52;92385.44;;;-8.35;85.99
19208;BME280;9737;59.466;18.036;2022-12-07T03:04:33;92385.63;;;-8.37;86.13
19208;BME280;9737;59.466;18.036;2022-12-07T03:07:08;92373.31;;;-8.41;86.17
19208;BME280;9737;59.466;18.036;2022-12-07T03:09:44;92360.84;;;-8.45;85.70
19208;BME280;9737;59.466;18.036;2022-12-07T03:12:19;92346.59;;;-8.47;85.76
19208;BME280;9737;59.466;18.036;2022-12-07T03:14:52;92362.44;;;-8.44;85.67
19208;BME280;9737;59.466;18.036;2022-12-07T03:17:28;92363.22;;;-8.43;85.83
19208;BME280;9737;59.466;18.036;2022-12-07T03:20:03;92366.59;;;-8.43;85.42
19208;BME280;9737;59.466;18.036;2022-12-07T03:22:38;92372.34;;;-8.40;85.62
19208;BME280;9737;59.466;18.036;2022-12-07T03:25:14;92374.31;;;-8.43;85.81
19208;BME280;9737;59.466;18.036;2022-12-07T03:27:46;92396.53;;;-8.35;86.07
19208;BME280;9737;59.466;18.036;2022-12-07T03:30:20;92401.25;;;-8.38;85.74
19208;BME280;9737;59.466;18.036;2022-12-07T03:32:53;92417.09;;;-8.28;85.38
19208;BME280;9737;59.466;18.036;2022-12-07T03:35:25;92410.75;;;-8.32;85.25
19208;BME280;9737;59.466;18.036;2022-12-07T03:37:56;92412.53;;;-8.33;85.86
19208;BME280;9737;59.466;18.036;2022-12-07T03:40:29;92404.06;;;-8.33;85.47
19208;BME280;9737;59.466;18.036;2022-12-07T03:42:59;92397.31;;;-8.34;85.97
19208;BME280;9737;59.466;18.036;2022-12-07T03:45:33;92418.09;;;-8.29;86.13
19208;BME280;9737;59.466;18.036;2022-12-07T03:48:08;92414.72;;;-8.30;86.23
19208;BME280;9737;59.466;18.036;2022-12-07T03:50:49;92420.28;;;-8.26;85.90
19208;BME280;9737;59.466;18.036;2022-12-07T03:53:22;92437.72;;;-8.22;85.67
19208;BME280;9737;59.466;18.036;2022-12-07T03:55:56;92468.63;;;-8.15;85.37
19208;BME280;9737;59.466;18.036;2022-12-07T03:58:25;92477.56;;;-8.11;86.29
19208;BME280;9737;59.466;18.036;2022-12-07T04:00:55;92469.81;;;-8.11;85.84
19208;BME280;9737;59.466;18.036;2022-12-07T04:03:25;92478.34;;;-8.11;85.71
19208;BME280;9737;59.466;18.036;2022-12-07T04:05:54;92473.38;;;-8.12;86.22
19208;BME280;9737;59.466;18.036;2022-12-07T04:08:22;92475.97;;;-8.12;86.27
19208;BME280;9737;59.466;18.036;2022-12-07T04:10:51;92480.13;;;-8.11;86.02
19208;BME280;9737;59.466;18.036;2022-12-07T04:13:18;92485.91;;;-8.09;85.32
19208;BME280;9737;59.466;18.036;2022-12-07T04:15:46;92479.34;;;-8.12;85.85
19208;BME280;9737;59.466;18.036;2022-12-07T04:18:14;92466.66;;;-8.13;85.55
19208;BME280;9737;59.466;18.036;2022-12-07T04:20:45;92471.81;;;-8.13;85.57
19208;BME280;9737;59.466;18.036;2022-12-07T04:23:13;92465.84;;;-8.14;86.09
19208;BME280;9737;59.466;18.036;2022-12-07T04:25:40;92475.16;;;-8.19;85.88
19208;BME280;9737;59.466;18.036;2022-12-07T04:28:08;92492.44;;;-8.06;86.03
19208;BME280;9737;59.466;18.036;2022-12-07T04:30:36;92510.88;;;-8.03;86.35
19208;BME280;9737;59.466;18.036;2022-12-07T04:33:04;92519.00;;;-7.99;86.09
19208;BME280;9737;59.466;18.036;2022-12-07T04:35:32;92519.00;;;-7.99;85.60
19208;BME280;9737;59.466;18.036;2022-12-07T04:38:04;92506.31;;;-8.07;86.03
19208;BME280;9737;59.466;18.036;2022-12-07T04:40:32;92538.44;;;-7.97;85.86
19208;BME280;9737;59.466;18.036;2022-12-07T04:43:00;92545.59;;;-7.92;86.02
19208;BME280;9737;59.466;18.036;2022-12-07T04:45:28;92567.41;;;-7.88;85.46
19208;BME280;9737;59.466;18.036;2022-12-07T04:47:56;92578.09;;;-7.85;86.23
19208;BME280;9737;59.466;18.036;2022-12-07T04:50:23;92581.28;;;-7.83;85.96
19208;BME280;9737;59.466;18.036;2022-12-07T04:52:53;92591.25;;;-7.79;85.89
19208;BME280;9737;59.466;18.036;2022-12-07T04:55:22;92582.28;;;-7.84;86.02
19208;BME280;9737;59.466;18.036;2022-12-07T04:57:50;92583.06;;;-7.83;85.96
19208;BME280;9737;59.466;18.036;2022-12-07T05:00:18;92584.66;;;-7.82;86.26
19208;BME280;9737;59.466;18.036;2022-12-07T05:02:46;92579.09;;;-7.86;86.53
19208;BME280;9737;59.466;18.036;2022-12-07T05:05:16;92559.88;;;-7.90;86.08
19208;BME280;9737;59.466;18.036;2022-12-07T05:07:44;92560.66;;;-7.89;85.65
19208;BME280;9737;59.466;18.036;2022-12-07T05:10:11;92551.53;;;-7.92;85.64
19208;BME280;9737;59.466;18.036;2022-12-07T05:12:41;92549.94;;;-7.93;86.06
19208;BME280;9737;59.466;18.036;2022-12-07T05:15:09;92535.88;;;-7.97;86.34
19208;BME280;9737;59.466;18.036;2022-12-07T05:17:37;92533.28;;;-7.97;86.27
19208;BME280;9737;59.466;18.036;2022-12-07T05:20:06;92541.63;;;-7.95;86.29
19208;BME280;9737;59.466;18.036;2022-12-07T05:22:34;92524.56;;;-7.96;86.40
19208;BME280;9737;59.466;18.036;2022-12-07T05:25:05;92534.47;;;-7.99;86.25
19208;BME280;9737;59.466;18.036;2022-12-07T05:27:33;92530.13;;;-7.99;85.70
19208;BME280;9737;59.466;18.036;2022-12-07T05:30:03;92514.06;;;-8.01;85.38
19208;BME280;9737;59.466;18.036;2022-12-07T05:32:31;92491.66;;;-8.07;85.75
19208;BME280;9737;59.466;18.036;2022-12-07T05:34:59;92484.47;;;-8.12;86.02
19208;BME280;9737;59.466;18.036;2022-12-07T05:37:27;92481.72;;;-8.10;85.86
19208;BME280;9737;59.466;18.036;2022-12-07T05:39:55;92463.47;;;-8.15;85.85
19208;BME280;9737;59.466;18.036;2022-12-07T05:42:23;92453.56;;;-8.18;85.65
19208;BME280;9737;59.466;18.036;2022-12-07T05:44:52;92446.44;;;-8.23;85.45
19208;BME280;9737;59.466;18.036;2022-12-07T05:47:21;92460.31;;;-8.17;85.92
19208;BME280;9737;59.466;18.036;2022-12-07T05:49:49;92450.41;;;-8.20;85.72
19208;BME280;9737;59.466;18.036;2022-12-07T05:52:17;92442.88;;;-8.22;86.05
19208;BME280;9737;59.466;18.036;2022-12-07T05:54:45;92427.00;;;-8.25;85.93
19208;BME280;9737;59.466;18.036;2022-12-07T05:57:13;92418.69;;;-8.27;85.78
19208;BME280;9737;59.466;18.036;2022-12-07T05:59:41;92402.03;;;-8.31;85.50
19208;BME280;9737;59.466;18.036;2022-12-07T06:02:10;92383.84;;;-8.36;86.11
19208;BME280;9737;59.466;18.036;2022-12-07T06:04:42;92371.53;;;-8.41;85.42
19208;BME280;9737;59.466;18.036;2022-12-07T06:07:11;92359.25;;;-8.46;85.96
19208;BME280;9737;59.466;18.036;2022-12-07T06:09:40;92340.84;;;-8.49;85.89
19208;BME280;9737;59.466;18.036;2022-12-07T06:12:09;92330.13;;;-8.53;85.96
19208;BME280;9737;59.466;18.036;2022-12-07T06:14:55;92320.84;;;-8.54;86.11
19208;BME280;9737;59.466;18.036;2022-12-07T06:17:23;92309.34;;;-8.58;86.30
19208;BME280;9737;59.466;18.036;2022-12-07T06:19:54;92298.47;;;-8.60;86.25
19208;BME280;9737;59.466;18.036;2022-12-07T06:22:21;92304.59;;;-8.61;85.66
19208;BME280;9737;59.466;18.036;2022-12-07T06:24:49;92300.03;;;-8.59;85.85
19208;BME280;9737;59.466;18.036;2022-12-07T06:27:18;92286.00;;;-8.63;85.82
19208;BME280;9737;59.466;18.036;2022-12-07T06:29:46;92278.03;;;-8.68;86.22
19208;BME280;9737;59.466;18.036;2022-12-07T06:32:14;92268.13;;;-8.71;85.97
19208;BME280;9737;59.466;18.036;2022-12-07T06:34:42;92268.13;;;-8.71;85.62
19208;BME280;9737;59.466;18.036;2022-12-07T06:37:12;92316.69;;;-8.55;86.19
19208;BME280;9737;59.466;18.036;2022-12-07T06:39:40;92332.31;;;-8.50;86.05
19208;BME280;9737;59.466;18.036;2022-12-07T06:42:08;92327.56;;;-8.53;86.16
19208;BME280;9737;59.466;18.036;2022-12-07T06:44:38;92311.72;;;-8.56;86.16
19208;BME280;9737;59.466;18.036;2022-12-07T06:47:06;92294.31;;;-8.61;86.00
19208;BME280;9737;59.466;18.036;2022-12-07T06:49:55;92297.47;;;-8.59;85.76
19208;BME280;9737;59.466;18.036;2022-12-07T06:52:25;92307.75;;;-8.59;85.89
19208;BME280;9737;59.466;18.036;2022-12-07T06:54:53;92298.66;;;-8.61;85.75
19208;BME280;9737;59.466;18.036;2022-12-07T06:57:21;92281.03;;;-8.64;85.63
19208;BME280;9737;59.466;18.036;2022-12-07T06:59:49;92282.81;;;-8.65;85.87
19208;BME280;9737;59.466;18.036;2022-12-07T07:02:17;92286.97;;;-8.64;85.86
19208;BME280;9737;59.466;18.036;2022-12-07T07:04:45;92276.09;;;-8.66;86.17
19208;BME280;9737;59.466;18.036;2022-12-07T07:07:13;92269.34;;;-8.67;85.59
19208;BME280;9737;59.466;18.036;2022-12-07T07:09:42;92281.25;;;-8.66;85.78
19208;BME280;9737;59.466;18.036;2022-12-07T07:12:10;92268.38;;;-8.66;85.91
19208;BME280;9737;59.466;18.036;2022-12-07T07:14:37;92270.94;;;-8.66;86.09
19208;BME280;9737;59.466;18.036;2022-12-07T07:17:05;92265.97;;;-8.67;85.88
19208;BME280;9737;59.466;18.036;2022-12-07T07:19:33;92278.66;;;-8.66;86.10
19208;BME280;9737;59.466;18.036;2022-12-07T07:22:01;92256.06;;;-8.77;85.76
19208;BME280;9737;59.466;18.036;2022-12-07T07:24:29;92282.81;;;-8.65;85.63
19208;BME280;9737;59.466;18.036;2022-12-07T07:26:59;92280.25;;;-8.65;85.87
19208;BME280;9737;59.466;18.036;2022-12-07T07:29:27;92276.09;;;-8.66;85.73
19208;BME280;9737;59.466;18.036;2022-12-07T07:31:54;92272.88;;;-8.68;85.59
19208;BME280;9737;59.466;18.036;2022-12-07T07:34:30;92267.75;;;-8.68;85.94
19208;BME280;9737;59.466;18.036;2022-12-07T07:36:58;92271.31;;;-8.69;86.04
19208;BME280;9737;59.466;18.036;2022-12-07T07:39:26;92255.47;;;-8.79;85.70
19208;BME280;9737;59.466;18.036;2022-12-07T07:41:53;92264.56;;;-8.70;85.86
19208;BME280;9737;59.466;18.036;2022-12-07T07:44:24;92252.31;;;-8.75;85.38
19208;BME280;9737;59.466;18.036;2022-12-07T07:47:00;92249.72;;;-8.75;85.70
19208;BME280;9737;59.466;18.036;2022-12-07T07:49:28;92250.53;;;-8.74;86.00
19208;BME280;9737;59.466;18.036;2022-12-07T07:51:56;92256.25;;;-8.72;86.06
19208;BME280;9737;59.466;18.036;2022-12-07T07:54:24;92256.66;;;-8.75;85.75
19208;BME280;9737;59.466;18.036;2022-12-07T07:56:52;92255.47;;;-8.72;85.99
19208;BME280;9737;59.466;18.036;2022-12-07T07:59:20;92254.69;;;-8.73;85.78
19208;BME280;9737;59.466;18.036;2022-12-07T08:01:52;92280.25;;;-8.65;85.85
19208;BME280;9737;59.466;18.036;2022-12-07T08:04:20;92286.00;;;-8.63;86.44
19208;BME280;9737;59.466;18.036;2022-12-07T08:06:48;92291.94;;;-8.62;86.32
19208;BME280;9737;59.466;18.036;2022-12-07T08:09:16;92279.25;;;-8.64;85.56
19208;BME280;9737;59.466;18.036;2022-12-07T08:11:44;92303.00;;;-8.62;86.01
19208;BME280;9737;59.466;18.036;2022-12-07T08:14:11;92307.56;;;-8.57;86.03
19208;BME280;9737;59.466;18.036;2022-12-07T08:16:39;92310.34;;;-8.59;86.38
19208;BME280;9737;59.466;18.036;2022-12-07T08:19:08;92315.88;;;-8.55;85.71
19208;BME280;9737;59.466;18.036;2022-12-07T08:21:37;92321.63;;;-8.53;85.64
19208;BME280;9737;59.466;18.036;2022-12-07T08:24:05;92330.75;;;-8.51;86.17
19208;BME280;9737;59.466;18.036;2022-12-07T08:26:33;92355.69;;;-8.45;86.05
19208;BME280;9737;59.466;18.036;2022-12-07T08:29:01;92367.78;;;-8.38;85.72
19208;BME280;9737;59.466;18.036;2022-12-07T08:31:29;92386.44;;;-8.36;85.98
19208;BME280;9737;59.466;18.036;2022-12-07T08:33:58;92396.34;;;-8.33;86.59
19208;BME280;9737;59.466;18.036;2022-12-07T08:36:28;92403.63;;;-8.30;85.73
19208;BME280;9737;59.466;18.036;2022-12-07T08:38:56;92406.81;;;-8.28;85.96
19208;BME280;9737;59.466;18.036;2022-12-07T08:41:44;92412.94;;;-8.29;86.06
19208;BME280;9737;59.466;18.036;2022-12-07T08:44:12;92430.19;;;-8.23;86.16
19208;BME280;9737;59.466;18.036;2022-12-07T08:46:43;92435.34;;;-8.23;85.80
19208;BME280;9737;59.466;18.036;2022-12-07T08:49:17;92432.56;;;-8.22;85.66
19208;BME280;9737;59.466;18.036;2022-12-07T08:51:50;92450.19;;;-8.19;86.09
19208;BME280;9737;59.466;18.036;2022-12-07T08:54:18;92455.94;;;-8.17;86.04
19208;BME280;9737;59.466;18.036;2022-12-07T08:56:47;92462.28;;;-8.19;86.05
19208;BME280;9737;59.466;18.036;2022-12-07T08:59:25;92468.25;;;-8.12;85.88
19208;BME280;9737;59.466;18.036;2022-12-07T09:01:54;92464.66;;;-8.18;85.76
19208;BME280;9737;59.466;18.036;2022-12-07T09:04:22;92470.81;;;-8.12;86.08
19208;BME280;9737;59.466;18.036;2022-12-07T09:06:52;92486.50;;;-8.07;86.39
19208;BME280;9737;59.466;18.036;2022-12-07T09:09:20;92491.66;;;-8.07;85.66
19208;BME280;9737;59.466;18.036;2022-12-07T09:11:48;92492.66;;;-8.08;86.06
19208;BME280;9737;59.466;18.036;2022-12-07T09:14:16;92484.91;;;-8.08;86.23
19208;BME280;9737;59.466;18.036;2022-12-07T09:16:45;92485.72;;;-8.07;86.40
19208;BME280;9737;59.466;18.036;2022-12-07T09:19:13;92499.00;;;-8.04;86.00
19208;BME280;9737;59.466;18.036;2022-12-07T09:21:41;92517.84;;;-7.97;85.94
19208;BME280;9737;59.466;18.036;2022-12-07T09:24:11;92543.97;;;-8.00;86.03
19208;BME280;9737;59.466;18.036;2022-12-07T09:26:39;92592.81;;;-7.78;85.57
19208;BME280;9737;59.466;18.036;2022-12-07T09:29:08;92625.16;;;-7.69;86.18
19208;BME280;9737;59.466;18.036;2022-12-07T09:31:36;92665.84;;;-7.58;86.42
19208;BME280;9737;59.466;18.036;2022-12-07T09:34:05;92699.22;;;-7.50;86.02
19208;BME280;9737;59.466;18.036;2022-12-07T09:36:34;92751.63;;;-7.36;86.32
19208;BME280;9737;59.466;18.036;2022-12-07T09:39:02;92795.72;;;-7.25;86.01
19208;BME280;9737;59.466;18.036;2022-12-07T09:41:32;92833.88;;;-7.13;85.79
19208;BME280;9737;59.466;18.036;2022-12-07T09:44:04;92868.06;;;-7.05;86.38
19208;BME280;9737;59.466;18.036;2022-12-07T09:46:34;92909.00;;;-6.95;86.12
19208;BME280;9737;59.466;18.036;2022-12-07T09:49:04;92933.69;;;-6.86;85.80
19208;BME280;9737;59.466;18.036;2022-12-07T09:51:32;92953.34;;;-6.85;86.06
19208;BME280;9737;59.466;18.036;2022-12-07T09:54:00;92983.00;;;-6.74;86.28
19208;BME280;9737;59.466;18.036;2022-12-07T09:56:29;92991.34;;;-6.72;86.11
19208;BME280;9737;59.466;18.036;2022-12-07T09:59:02;93016.03;;;-6.63;85.92
19208;BME280;9737;59.466;18.036;2022-12-07T10:01:32;93041.91;;;-6.57;85.98
19208;BME280;9737;59.466;18.036;2022-12-07T10:04:08;93052.84;;;-6.54;86.02
19208;BME280;9737;59.466;18.036;2022-12-07T10:06:39;93081.09;;;-6.46;86.12
19208;BME280;9737;59.466;18.036;2022-12-07T10:09:10;93121.13;;;-6.36;85.94
19208;BME280;9737;59.466;18.036;2022-12-07T10:12:04;93166.91;;;-6.23;86.66
19208;BME280;9737;59.466;18.036;2022-12-07T10:14:38;93198.75;;;-6.16;86.15
19208;BME280;9737;59.466;18.036;2022-12-07T10:17:34;93249.22;;;-5.99;86.25
19208;BME280;9737;59.466;18.036;2022-12-07T10:20:23;93286.84;;;-5.89;86.50
19208;BME280;9737;59.466;18.036;2022-12-07T10:23:00;93336.25;;;-5.78;86.33
19208;BME280;9737;59.466;18.036;2022-12-07T10:25:30;93382.13;;;-5.65;86.32
19208;BME280;9737;59.466;18.036;2022-12-07T10:28:14;93442.19;;;-5.48;86.32
19208;BME280;9737;59.466;18.036;2022-12-07T10:30:53;93467.13;;;-5.41;86.37
19208;BME280;9737;59.466;18.036;2022-12-07T10:33:33;93510.59;;;-5.30;86.23
19208;BME280;9737;59.466;18.036;2022-12-07T10:36:19;93545.75;;;-5.20;86.36
19208;BME280;9737;59.466;18.036;2022-12-07T10:38:50;93573.84;;;-5.17;86.32
19208;BME280;9737;59.466;18.036;2022-12-07T10:41:19;93573.66;;;-5.16;86.17
19208;BME280;9737;59.466;18.036;2022-12-07T10:43:50;93637.78;;;-4.96;86.33
19208;BME280;9737;59.466;18.036;2022-12-07T10:46:46;93658.75;;;-4.91;86.34
19208;BME280;9737;59.466;18.036;2022-12-07T10:49:52;93695.53;;;-4.81;86.52
19208;BME280;9737;59.466;18.036;2022-12-07T10:52:34;93726.31;;;-4.72;86.42
19208;BME280;9737;59.466;18.036;2022-12-07T10:55:15;93814.44;;;-4.50;86.48
19208;BME280;9737;59.466;18.036;2022-12-07T10:57:55;93819.88;;;-4.45;86.42
19208;BME280;9737;59.466;18.036;2022-12-07T11:00:30;93848.63;;;-4.40;86.37
19208;BME280;9737;59.466;18.036;2022-12-07T11:03:19;93875.47;;;-4.33;86.49
19208;BME280;9737;59.466;18.036;2022-12-07T11:05:54;93919.88;;;-4.21;86.44
19208;BME280;9737;59.466;18.036;2022-12-07T11:08:41;93962.06;;;-4.13;86.41
19208;BME280;9737;59.466;18.036;2022-12-07T11:11:14;93972.50;;;-4.06;86.57
19208;BME280;9737;59.466;18.036;2022-12-07T11:13:48;94003.72;;;-3.99;86.25
19208;BME280;9737;59.466;18.036;2022-12-07T11:16:24;93949.91;;;-4.27;86.75
19208;BME280;9737;59.466;18.036;2022-12-07T11:19:05;93921.03;;;-4.24;86.65
19208;BME280;9737;59.466;18.036;2022-12-07T11:21:40;93932.66;;;-4.20;86.42
19208;BME280;9737;59.466;18.036;2022-12-07T11:24:16;93926.66;;;-4.20;86.42
19208;BME280;9737;59.466;18.036;2022-12-07T11:27:24;93957.84;;;-4.14;86.39
19208;BME280;9737;59.466;18.036;2022-12-07T11:30:06;94041.56;;;-3.90;86.53
19208;BME280;9737;59.466;18.036;2022-12-07T11:32:50;94107.66;;;-3.71;86.37
19208;BME280;9737;59.466;18.036;2022-12-07T11:35:33;94116.09;;;-3.69;86.65
19208;BME280;9737;59.466;18.036;2022-12-07T11:38:10;94194.19;;;-3.50;86.62
19208;BME280;9737;59.466;18.036;2022-12-07T11:40:40;94202.28;;;-3.45;86.56
19208;BME280;9737;59.466;18.036;2022-12-07T11:43:18;94185.34;;;-3.55;86.52
19208;BME280;9737;59.466;18.036;2022-12-07T11:45:54;94125.28;;;-3.67;86.81
19208;BME280;9737;59.466;18.036;2022-12-07T11:48:29;94078.41;;;-3.80;86.54
19208;BME280;9737;59.466;18.036;2022-12-07T11:51:01;94050.75;;;-3.88;86.65
19208;BME280;9737;59.466;18.036;2022-12-07T11:53:34;93989.66;;;-4.05;86.45
19208;BME280;9737;59.466;18.036;2022-12-07T11:56:07;93956.25;;;-4.15;86.29
19208;BME280;9737;59.466;18.036;2022-12-07T11:58:46;93933.63;;;-4.21;86.50
19208;BME280;9737;59.466;18.036;2022-12-07T12:01:26;93926.47;;;-4.19;86.66
19208;BME280;9737;59.466;18.036;2022-12-07T12:04:03;93892.63;;;-4.32;86.44
19208;BME280;9737;59.466;18.036;2022-12-07T12:06:35;93869.00;;;-4.37;86.50
19208;BME280;9737;59.466;18.036;2022-12-07T12:09:06;93844.63;;;-4.43;86.48
19208;BME280;9737;59.466;18.036;2022-12-07T12:12:18;93817.03;;;-4.50;86.49
19208;BME280;9737;59.466;18.036;2022-12-07T12:15:19;93822.22;;;-4.50;86.53
19208;BME280;9737;59.466;18.036;2022-12-07T12:18:10;93828.03;;;-4.48;86.37
19208;BME280;9737;59.466;18.036;2022-12-07T12:20:46;93834.00;;;-4.48;86.45
19208;BME280;9737;59.466;18.036;2022-12-07T12:23:20;93832.03;;;-4.46;86.50
19208;BME280;9737;59.466;18.036;2022-12-07T12:25:51;93826.41;;;-4.49;86.66
19208;BME280;9737;59.466;18.036;2022-12-07T12:28:24;93827.03;;;-4.47;86.36
19208;BME280;9737;59.466;18.036;2022-12-07T12:31:07;93822.84;;;-4.48;86.31
19208;BME280;9737;59.466;18.036;2022-12-07T12:33:38;93821.84;;;-4.47;86.70
19208;BME280;9737;59.466;18.036;2022-12-07T12:36:27;93827.84;;;-4.47;86.60
19208;BME280;9737;59.466;18.036;2022-12-07T12:39:13;93795.06;;;-4.54;86.42
19208;BME280;9737;59.466;18.036;2022-12-07T12:41:52;93784.44;;;-4.59;86.35
19208;BME280;9737;59.466;18.036;2022-12-07T12:47:56;93766.03;;;-4.64;86.73
19208;BME280;9737;59.466;18.036;2022-12-07T12:50:30;93760.22;;;-4.67;86.54
19208;BME280;9737;59.466;18.036;2022-12-07T12:53:02;93750.22;;;-4.70;86.51
19208;BME280;9737;59.466;18.036;2022-12-07T12:56:03;93753.44;;;-4.68;86.78
19208;BME280;9737;59.466;18.036;2022-12-07T12:58:38;93745.25;;;-4.71;86.47
19208;BME280;9737;59.466;18.036;2022-12-07T13:04:34;93703.47;;;-4.83;86.38
19208;BME280;9737;59.466;18.036;2022-12-07T13:07:11;93703.47;;;-4.83;86.49
19208;BME280;9737;59.466;18.036;2022-12-07T13:09:42;93689.91;;;-4.85;86.48
19208;BME280;9737;59.466;18.036;2022-12-07T13:12:14;93687.50;;;-4.86;86.65
19208;BME280;9737;59.466;18.036;2022-12-07T13:14:54;93660.38;;;-4.90;86.25
19208;BME280;9737;59.466;18.036;2022-12-07T13:18:00;93658.75;;;-4.91;86.56
19208;BME280;9737;59.466;18.036;2022-12-07T13:20:48;93647.13;;;-4.95;86.33
19208;BME280;9737;59.466;18.036;2022-12-07T13:23:19;93622.78;;;-5.01;86.43
19208;BME280;9737;59.466;18.036;2022-12-07T13:25:55;93616.19;;;-5.04;86.42
19208;BME280;9737;59.466;18.036;2022-12-07T13:28:27;93585.44;;;-5.13;86.28
19208;BME280;9737;59.466;18.036;2022-12-07T13:31:04;93575.28;;;-5.15;86.46
19208;BME280;9737;59.466;18.036;2022-12-07T13:33:39;93551.09;;;-5.22;86.28
19208;BME280;9737;59.466;18.036;2022-12-07T13:36:17;93529.34;;;-5.27;86.39
19208;BME280;9737;59.466;18.036;2022-12-07T13:38:52;93505.19;;;-5.35;86.44